Fort Ross, California
Current Conditions -  °F | °C
As of 9:09 PM on Friday 24 Oct 2014 (Local Time) from KSTS Reporting Station
Broken Clouds Broken Clouds  
Wind Chill: 16°   Ceiling: 3100
Heat Index: 16°   Visibility: 10mi
Dew Point: 13°   Wind: 5mph
Humidity: 82%   Direction: 130°SE
Pressure: 29.88"   Gusts: NA
Location:  38.4962°N, 123.173°W
Report Text: KSTS 250409Z AUTO 13004KT 10SM BKN031 16/13 A2988 RMK AO2
Loading
Personal Weather Stations






























Interactive Weather Map
Tropical Storm Tracking
New forecast layout! Learn more

10-Day Weather Forecast

Advertisements
Track Severe Weather on mobile